Time;durP1;ratioP1;P1;durP2;ratioP2;P2;SDS_P1;SDS_P2;PMS_P1;PMS_P2;Temp;Humidity;BMP_temperature;BMP_pressure;BME280_temperature;BME280_humidity;BME280_pressure;Samples;Min_cycle;Max_cycle;Signal;HPM_P1;HPM_P2
2023/03/16 00:02:30;;;;;;;4.03;3.53;;;1.00;99.90;;;;;;4950410;29;20092;-62
2023/03/16 00:05:02;;;;;;;7.05;3.78;;;1.00;99.90;;;;;;4941669;29;20036;-63
2023/03/16 00:07:34;;;;;;;6.07;4.70;;;1.00;99.90;;;;;;4942369;29;20070;-62
2023/03/16 00:10:07;;;;;;;6.60;4.32;;;1.00;99.90;;;;;;4949902;29;20036;-63
2023/03/16 00:12:42;;;;;;;6.43;3.50;;;1.00;99.90;;;;;;4948367;29;20046;-63
2023/03/16 00:15:10;;;;;;;5.82;3.53;;;0.90;99.90;;;;;;4942907;29;20779;-63
2023/03/16 00:17:47;;;;;;;6.95;3.90;;;0.90;99.90;;;;;;4942900;29;20043;-62
2023/03/16 00:20:19;;;;;;;6.68;3.83;;;0.80;99.90;;;;;;4951310;29;20584;-63
2023/03/16 00:22:51;;;;;;;5.45;3.30;;;0.80;99.90;;;;;;4947734;29;20040;-63
2023/03/16 00:25:23;;;;;;;5.53;3.70;;;0.80;99.90;;;;;;4942323;29;20052;-63
2023/03/16 00:27:55;;;;;;;4.85;4.15;;;0.70;99.90;;;;;;4936444;29;20103;-62
2023/03/16 00:30:27;;;;;;;12.00;5.07;;;0.70;99.90;;;;;;4946612;29;20047;-63
2023/03/16 00:33:00;;;;;;;6.93;3.92;;;0.60;99.90;;;;;;4927224;29;20417;-63
2023/03/16 00:35:27;;;;;;;5.10;3.10;;;0.60;99.90;;;;;;4934918;29;20040;-63
2023/03/16 00:37:59;;;;;;;4.70;3.50;;;0.60;99.90;;;;;;4936226;29;20043;-63
2023/03/16 00:40:32;;;;;;;5.35;3.72;;;0.60;99.90;;;;;;4942108;29;20510;-62
2023/03/16 00:43:00;;;;;;;5.93;4.30;;;0.60;99.90;;;;;;4937523;29;20056;-63
2023/03/16 00:45:32;;;;;;;5.20;3.93;;;0.70;99.90;;;;;;4925322;29;20051;-63
2023/03/16 00:48:04;;;;;;;5.00;3.78;;;0.70;99.90;;;;;;4931211;29;20052;-63
2023/03/16 00:50:37;;;;;;;4.10;3.42;;;0.70;99.90;;;;;;4952604;29;20046;-62
2023/03/16 00:53:09;;;;;;;5.57;3.47;;;0.70;99.90;;;;;;4931786;29;20067;-63
2023/03/16 00:55:36;;;;;;;5.07;3.55;;;0.70;99.90;;;;;;4940947;28;20520;-63
2023/03/16 00:58:08;;;;;;;4.63;3.55;;;0.60;99.90;;;;;;4920168;29;20056;-63
2023/03/16 01:00:40;;;;;;;4.80;3.05;;;0.60;99.90;;;;;;4940217;29;20623;-63
2023/03/16 01:03:11;;;;;;;4.95;3.25;;;0.60;99.90;;;;;;4930701;29;20565;-63
2023/03/16 01:05:44;;;;;;;4.63;2.97;;;0.60;99.90;;;;;;4926481;29;20118;-63
2023/03/16 01:08:16;;;;;;;5.25;3.42;;;0.60;99.90;;;;;;4939967;29;20036;-63
2023/03/16 01:10:47;;;;;;;4.88;3.47;;;0.60;99.90;;;;;;4947044;29;20051;-62
2023/03/16 01:13:20;;;;;;;4.63;3.60;;;0.60;99.90;;;;;;4935918;29;20900;-62
2023/03/16 01:15:52;;;;;;;6.22;3.88;;;0.50;99.90;;;;;;4931801;29;20055;-63
2023/03/16 01:18:25;;;;;;;7.10;3.42;;;0.50;99.90;;;;;;4925251;29;20047;-63
2023/03/16 01:20:57;;;;;;;4.70;3.60;;;0.50;99.90;;;;;;4953310;29;20463;-63
2023/03/16 01:23:32;;;;;;;4.85;3.25;;;0.50;99.90;;;;;;4931811;29;20044;-63
2023/03/16 01:25:59;;;;;;;7.47;4.20;;;0.50;99.90;;;;;;4945185;29;20047;-62
2023/03/16 01:28:33;;;;;;;5.32;3.78;;;0.40;99.90;;;;;;4929990;29;20047;-63
2023/03/16 01:31:08;;;;;;;7.63;4.40;;;0.40;99.90;;;;;;4932554;29;20055;-63
2023/03/16 01:33:40;;;;;;;6.40;3.33;;;0.40;99.90;;;;;;4945802;29;20058;-63
2023/03/16 01:36:18;;;;;;;7.15;3.63;;;0.30;99.90;;;;;;4938599;29;20071;-63
2023/03/16 01:38:55;;;;;;;4.25;3.15;;;0.30;99.90;;;;;;4947708;29;20043;-63
2023/03/16 01:41:33;;;;;;;6.40;3.22;;;0.30;99.90;;;;;;4926733;29;20044;-63
2023/03/16 01:44:06;;;;;;;4.18;3.13;;;0.20;99.90;;;;;;4927649;29;20051;-63
2023/03/16 01:46:38;;;;;;;5.18;3.45;;;0.20;99.90;;;;;;4939916;29;20497;-63
2023/03/16 01:49:22;;;;;;;4.00;3.15;;;0.20;99.90;;;;;;4930016;29;20702;-63
2023/03/16 01:52:07;;;;;;;4.03;2.70;;;0.20;99.90;;;;;;4935355;29;20138;-62
2023/03/16 01:54:54;;;;;;;5.28;3.10;;;0.10;99.90;;;;;;4945309;29;20079;-63
2023/03/16 01:57:32;;;;;;;5.43;3.65;;;0.10;99.90;;;;;;4922461;29;20062;-63
2023/03/16 02:00:17;;;;;;;6.72;3.00;;;0.10;99.90;;;;;;4935078;29;20055;-63
2023/03/16 02:03:12;;;;;;;;;;;0.10;99.90;;;;;;4926486;29;20071;-62
2023/03/16 02:05:56;;;;;;;5.72;3.25;;;0.00;99.90;;;;;;4928428;29;20391;-63
2023/03/16 02:08:30;;;;;;;5.00;3.65;;;0.00;99.90;;;;;;4948093;29;20067;-63
2023/03/16 02:11:03;;;;;;;6.57;4.05;;;0.00;99.90;;;;;;4942022;29;20411;-63
2023/03/16 02:14:13;;;;;;;7.15;4.03;;;0.00;99.90;;;;;;4951123;29;20189;-63
2023/03/16 02:16:46;;;;;;;5.20;3.63;;;-0.10;99.90;;;;;;4938059;29;20576;-62
2023/03/16 02:19:33;;;;;;;6.78;3.70;;;-0.10;99.90;;;;;;4944050;29;20448;-63
2023/03/16 02:22:07;;;;;;;4.78;3.33;;;-0.20;99.90;;;;;;4943498;29;20059;-63
2023/03/16 02:24:40;;;;;;;5.75;3.53;;;-0.20;99.90;;;;;;4922655;29;20084;-63
2023/03/16 02:27:26;;;;;;;5.28;3.17;;;-0.20;99.90;;;;;;4923412;29;20040;-63
2023/03/16 02:30:16;;;;;;;6.20;3.47;;;-0.20;99.90;;;;;;4949510;29;20061;-63
2023/03/16 02:32:56;;;;;;;4.50;3.15;;;-0.20;99.90;;;;;;4939422;29;20071;-63
2023/03/16 02:35:28;;;;;;;6.38;3.80;;;-0.20;99.90;;;;;;4938189;29;20048;-63
2023/03/16 02:38:01;;;;;;;6.70;4.00;;;-0.20;99.90;;;;;;4933884;29;20511;-63
2023/03/16 02:40:42;;;;;;;6.55;3.55;;;-0.20;99.90;;;;;;4943754;29;20047;-63
2023/03/16 02:43:20;;;;;;;5.65;3.58;;;-0.20;99.90;;;;;;4945913;29;20055;-63
2023/03/16 02:46:06;;;;;;;4.18;3.13;;;-0.20;99.90;;;;;;4930689;29;20421;-62
2023/03/16 02:48:44;;;;;;;5.07;3.35;;;-0.20;99.90;;;;;;4940528;29;20162;-63
2023/03/16 02:51:16;;;;;;;5.82;3.80;;;-0.30;99.90;;;;;;4946931;29;20044;-63
2023/03/16 02:53:48;;;;;;;8.98;4.43;;;-0.30;99.90;;;;;;4919843;29;20059;-63
2023/03/16 02:56:21;;;;;;;5.40;4.05;;;-0.30;99.90;;;;;;4925316;29;20059;-63
2023/03/16 02:58:53;;;;;;;5.90;3.88;;;-0.40;99.90;;;;;;4937889;29;20515;-63
2023/03/16 03:01:25;;;;;;;6.00;4.20;;;-0.40;99.90;;;;;;4946956;29;20612;-62
2023/03/16 03:03:57;;;;;;;7.30;5.20;;;-0.40;99.90;;;;;;4941227;29;20137;-63
2023/03/16 03:06:31;;;;;;;4.43;3.55;;;-0.40;99.90;;;;;;4936242;29;20047;-63
2023/03/16 03:09:04;;;;;;;6.15;3.75;;;-0.50;99.90;;;;;;4944512;29;20047;-62
2023/03/16 03:11:37;;;;;;;5.43;3.35;;;-0.50;99.90;;;;;;4943102;29;20150;-63
2023/03/16 03:14:04;;;;;;;7.18;3.50;;;-0.50;99.90;;;;;;4938339;29;20066;-63
2023/03/16 03:16:38;;;;;;;7.07;3.55;;;-0.60;99.90;;;;;;4933970;29;20057;-62
2023/03/16 03:19:10;;;;;;;5.85;3.72;;;-0.60;99.90;;;;;;4942955;29;20059;-63
2023/03/16 03:21:37;;;;;;;6.80;3.67;;;-0.60;99.90;;;;;;4930399;29;20497;-63
2023/03/16 03:24:09;;;;;;;5.72;3.67;;;-0.60;99.90;;;;;;4927946;29;20107;-63
2023/03/16 03:26:43;;;;;;;11.95;4.30;;;-0.70;99.90;;;;;;4940099;29;20158;-62
2023/03/16 03:29:18;;;;;;;6.82;3.97;;;-0.70;99.90;;;;;;4935654;29;20052;-63
2023/03/16 03:31:51;;;;;;;6.80;3.75;;;-0.60;99.90;;;;;;4933795;29;20595;-63
2023/03/16 03:34:22;;;;;;;5.20;3.60;;;-0.70;99.90;;;;;;4926292;29;20047;-63
2023/03/16 03:36:54;;;;;;;6.50;4.47;;;-0.60;99.90;;;;;;4930317;29;20069;-63
2023/03/16 03:39:26;;;;;;;5.82;3.70;;;-0.70;99.90;;;;;;4946321;29;20047;-63
2023/03/16 03:41:58;;;;;;;5.85;3.67;;;-0.70;99.90;;;;;;4926764;29;20062;-63
2023/03/16 03:44:35;;;;;;;9.70;6.50;;;-0.70;99.90;;;;;;4936220;29;20066;-63
2023/03/16 03:47:07;;;;;;;7.95;5.18;;;-0.70;99.90;;;;;;4948318;29;20154;-63
2023/03/16 03:49:39;;;;;;;7.03;4.90;;;-0.70;99.90;;;;;;4924020;29;20063;-62
2023/03/16 03:52:06;;;;;;;7.57;5.07;;;-0.70;99.90;;;;;;4946108;29;20499;-62
2023/03/16 03:54:38;;;;;;;6.28;4.13;;;-0.70;99.90;;;;;;4915733;29;20074;-63
2023/03/16 03:57:13;;;;;;;7.07;3.72;;;-0.80;99.90;;;;;;4915404;29;20079;-62
2023/03/16 03:59:45;;;;;;;8.77;4.32;;;-0.80;99.90;;;;;;4933451;29;20043;-62
2023/03/16 04:02:39;;;;;;;5.30;3.80;;;-0.80;99.90;;;;;;4949202;29;20051;-63
2023/03/16 04:05:18;;;;;;;15.10;4.40;;;-0.90;99.90;;;;;;4925912;29;20520;-62
2023/03/16 04:07:53;;;;;;;7.63;4.65;;;-0.90;99.90;;;;;;4936972;29;20047;-63
2023/03/16 04:10:28;;;;;;;24.45;15.88;;;-0.90;99.90;;;;;;4934310;29;20055;-63
2023/03/16 04:13:00;;;;;;;16.70;10.27;;;-0.90;99.90;;;;;;4943940;29;20043;-63
2023/03/16 04:15:34;;;;;;;8.48;5.50;;;-0.90;99.90;;;;;;4931078;29;20047;-62
2023/03/16 04:18:18;;;;;;;8.80;5.30;;;-0.90;99.90;;;;;;4915650;29;20055;-63
2023/03/16 04:20:52;;;;;;;5.22;3.80;;;-0.90;99.90;;;;;;4941110;29;20044;-63
2023/03/16 04:23:24;;;;;;;5.07;4.05;;;-1.00;99.90;;;;;;4931928;29;20524;-63
2023/03/16 04:25:53;;;;;;;6.18;3.92;;;-1.00;99.90;;;;;;4935663;29;20048;-62
2023/03/16 04:28:25;;;;;;;7.30;4.18;;;-1.10;99.90;;;;;;4942406;29;20118;-62
2023/03/16 04:31:06;;;;;;;6.82;3.80;;;-1.00;99.90;;;;;;4921754;29;20051;-63
2023/03/16 04:33:41;;;;;;;6.72;3.63;;;-1.00;99.90;;;;;;4945334;29;20055;-63
2023/03/16 04:36:14;;;;;;;7.95;3.70;;;-1.00;99.90;;;;;;4927913;29;20048;-63
2023/03/16 04:38:46;;;;;;;6.63;4.00;;;-1.10;99.90;;;;;;4921023;29;20124;-63
2023/03/16 04:41:18;;;;;;;8.77;4.28;;;-1.10;99.90;;;;;;4923237;29;20044;-63
2023/03/16 04:43:57;;;;;;;5.25;4.13;;;-1.10;99.90;;;;;;4943462;29;20059;-63
2023/03/16 04:46:29;;;;;;;10.77;4.30;;;-1.10;99.90;;;;;;4951990;29;20054;-62
2023/03/16 04:49:07;;;;;;;9.70;3.92;;;-1.10;99.90;;;;;;4933650;29;20055;-62
2023/03/16 04:51:43;;;;;;;6.97;3.72;;;-1.10;99.90;;;;;;4934843;29;20048;-62
2023/03/16 04:54:18;;;;;;;8.48;3.75;;;-1.20;99.90;;;;;;4929274;29;20047;-63
2023/03/16 04:56:51;;;;;;;10.30;4.18;;;-1.20;99.90;;;;;;4923128;29;20508;-63
2023/03/16 04:59:31;;;;;;;6.97;4.00;;;-1.30;99.90;;;;;;4926099;29;20475;-63
2023/03/16 05:02:18;;;;;;;6.50;4.13;;;-1.30;99.90;;;;;;4931149;28;20051;-63
2023/03/16 05:04:50;;;;;;;4.63;3.55;;;-1.30;99.90;;;;;;4943000;29;20526;-63
2023/03/16 05:07:21;;;;;;;7.20;3.95;;;-1.30;99.90;;;;;;4946262;29;20075;-62
2023/03/16 05:09:55;;;;;;;6.53;3.95;;;-1.30;99.90;;;;;;4951632;29;20054;-64
2023/03/16 05:12:27;;;;;;;7.32;3.78;;;-1.30;99.90;;;;;;4931848;29;20130;-64
2023/03/16 05:14:59;;;;;;;7.78;4.00;;;-1.30;99.90;;;;;;4930548;29;20050;-63
2023/03/16 05:17:40;;;;;;;6.20;4.30;;;-1.30;99.90;;;;;;4939470;29;20497;-63
2023/03/16 05:20:14;;;;;;;8.50;4.35;;;-1.30;99.90;;;;;;4938276;29;20039;-65
2023/03/16 05:22:45;;;;;;;6.95;4.28;;;-1.30;99.90;;;;;;4944661;29;20068;-63
2023/03/16 05:25:24;;;;;;;9.02;4.07;;;-1.30;99.90;;;;;;4920740;29;20146;-65
2023/03/16 05:28:00;;;;;;;7.20;3.95;;;-1.30;99.90;;;;;;4945561;28;20067;-64
2023/03/16 05:30:41;;;;;;;7.45;4.63;;;-1.30;99.90;;;;;;4943972;28;20044;-63
2023/03/16 05:33:18;;;;;;;5.88;4.13;;;-1.30;99.90;;;;;;4929632;29;20125;-63
2023/03/16 05:35:56;;;;;;;7.93;5.25;;;-1.30;99.90;;;;;;4954275;28;20054;-63
2023/03/16 05:38:30;;;;;;;12.07;5.10;;;-1.30;99.90;;;;;;4929707;29;20055;-63
2023/03/16 05:41:03;;;;;;;;;;;-1.30;99.90;;;;;;4941393;29;20043;-63
2023/03/16 05:43:45;;;;;;;9.95;5.70;;;-1.30;99.90;;;;;;4945129;29;19931;-63
2023/03/16 05:46:13;;;;;;;10.05;5.53;;;-1.30;99.90;;;;;;4948229;28;20101;-63
2023/03/16 05:48:40;;;;;;;9.82;4.93;;;-1.30;99.90;;;;;;4950053;28;20316;-63
2023/03/16 05:51:14;;;;;;;10.68;5.65;;;-1.20;99.90;;;;;;4934000;29;20055;-63
2023/03/16 05:53:47;;;;;;;9.32;5.45;;;-1.20;99.90;;;;;;4945608;29;20043;-63
2023/03/16 05:56:28;;;;;;;11.32;7.97;;;-1.10;99.90;;;;;;4947701;29;20047;-63
2023/03/16 05:59:01;;;;;;;7.85;5.40;;;-1.10;99.90;;;;;;4941137;29;20432;-63
2023/03/16 06:01:28;;;;;;;10.60;5.68;;;-1.20;99.90;;;;;;4936418;28;20054;-63
2023/03/16 06:03:55;;;;;;;10.05;6.20;;;-1.20;99.90;;;;;;4945158;29;20039;-63
2023/03/16 06:06:28;;;;;;;11.95;6.15;;;-1.20;99.90;;;;;;4928258;29;20046;-63
2023/03/16 06:09:12;;;;;;;11.27;6.70;;;-1.30;99.90;;;;;;4943095;29;20039;-63
2023/03/16 06:11:44;;;;;;;10.82;6.50;;;-1.30;99.90;;;;;;4948530;28;20059;-63
2023/03/16 06:14:17;;;;;;;13.63;6.63;;;-1.20;99.90;;;;;;4943824;29;20044;-63
2023/03/16 06:16:51;;;;;;;8.68;5.50;;;-1.20;99.90;;;;;;4925212;29;20142;-63
2023/03/16 06:19:19;;;;;;;11.95;6.43;;;-1.20;99.90;;;;;;4944473;28;20042;-63
2023/03/16 06:21:56;;;;;;;8.98;6.47;;;-1.20;99.90;;;;;;4933137;29;20035;-63
2023/03/16 06:24:28;;;;;;;13.05;8.48;;;-1.20;99.90;;;;;;4936231;29;20035;-63
2023/03/16 06:27:00;;;;;;;16.73;10.55;;;-1.10;99.90;;;;;;4941474;28;20504;-63
2023/03/16 06:29:42;;;;;;;22.75;9.23;;;-1.10;99.90;;;;;;4950181;28;20098;-63
2023/03/16 06:32:15;;;;;;;11.32;8.25;;;-1.10;99.90;;;;;;4933690;29;20047;-63
2023/03/16 06:34:47;;;;;;;13.80;9.05;;;-1.00;99.90;;;;;;4923858;29;20426;-63
2023/03/16 06:37:20;;;;;;;15.85;8.40;;;-1.00;99.90;;;;;;4949854;28;20059;-63
2023/03/16 06:39:52;;;;;;;10.57;6.47;;;-1.00;99.90;;;;;;4947539;28;20090;-64
2023/03/16 06:42:24;;;;;;;14.55;9.25;;;-1.00;99.90;;;;;;4946193;29;20054;-63
2023/03/16 06:44:57;;;;;;;17.90;9.18;;;-0.90;99.90;;;;;;4932182;29;20040;-63
2023/03/16 06:47:28;;;;;;;13.15;9.32;;;-0.90;99.90;;;;;;4932932;28;20110;-63
2023/03/16 06:50:03;;;;;;;14.60;8.67;;;-0.90;99.90;;;;;;4947411;28;20279;-63
2023/03/16 06:52:35;;;;;;;;;;;-0.90;99.90;;;;;;4945943;28;20708;-63
2023/03/16 06:55:08;;;;;;;12.80;8.73;;;-0.90;99.90;;;;;;4935638;29;19923;-63
2023/03/16 06:57:43;;;;;;;20.83;11.10;;;-0.80;99.90;;;;;;4946290;28;20464;-62
2023/03/16 07:00:17;;;;;;;;;;;-0.80;99.90;;;;;;4945589;28;20050;-63
2023/03/16 07:02:44;;;;;;;41.05;20.60;;;-0.60;99.90;;;;;;4946307;29;19926;-63
2023/03/16 07:05:16;;;;;;;334.55;127.00;;;-0.60;99.90;;;;;;4945799;28;20509;-63
2023/03/16 07:07:44;;;;;;;136.15;60.20;;;-0.50;99.90;;;;;;4943215;28;20095;-63
2023/03/16 07:10:17;;;;;;;23.83;15.18;;;-0.40;99.90;;;;;;4947404;29;20035;-63
2023/03/16 07:12:49;;;;;;;22.70;13.25;;;-0.40;99.90;;;;;;4942010;29;20761;-63
2023/03/16 07:15:16;;;;;;;42.85;32.95;;;-0.30;99.90;;;;;;4949180;28;20044;-63
2023/03/16 07:17:49;;;;;;;20.48;14.23;;;-0.20;99.90;;;;;;4943683;28;20456;-63
2023/03/16 07:20:20;;;;;;;20.73;12.52;;;-0.20;99.90;;;;;;4949207;28;20054;-63
2023/03/16 07:22:52;;;;;;;25.10;14.60;;;-0.10;99.90;;;;;;4946030;28;20050;-63
2023/03/16 07:25:25;;;;;;;16.90;10.98;;;-0.10;99.90;;;;;;4934422;29;20062;-63
2023/03/16 07:27:57;;;;;;;22.00;14.13;;;0.00;99.90;;;;;;4932140;29;20071;-63
2023/03/16 07:30:34;;;;;;;22.05;12.35;;;0.00;99.90;;;;;;4952616;28;20302;-63
2023/03/16 07:33:08;;;;;;;24.63;14.55;;;0.10;99.90;;;;;;4946133;28;20115;-63
2023/03/16 07:35:40;;;;;;;23.77;15.20;;;0.20;99.90;;;;;;4934820;29;20131;-63
2023/03/16 07:38:12;;;;;;;23.35;15.30;;;0.30;99.90;;;;;;4952223;28;20051;-63
2023/03/16 07:40:44;;;;;;;26.80;17.17;;;0.40;99.90;;;;;;4954349;28;20837;-63
2023/03/16 07:43:20;;;;;;;29.15;20.55;;;0.60;99.90;;;;;;4943384;28;20068;-63
2023/03/16 07:45:54;;;;;;;30.75;17.83;;;0.70;99.90;;;;;;4947643;28;20118;-63
2023/03/16 07:48:26;;;;;;;25.02;13.77;;;0.80;99.90;;;;;;4933528;28;20571;-63
2023/03/16 07:51:01;;;;;;;21.02;13.20;;;1.00;99.90;;;;;;4934315;29;20043;-64
2023/03/16 07:53:34;;;;;;;24.50;13.55;;;1.20;99.90;;;;;;4930900;29;20527;-64
2023/03/16 07:56:32;;;;;;;18.45;12.25;;;1.30;99.90;;;;;;4949218;28;20058;-63
2023/03/16 07:59:00;;;;;;;20.98;12.55;;;1.50;99.90;;;;;;4939121;28;20102;-63
2023/03/16 08:01:33;;;;;;;20.70;11.75;;;1.60;99.90;;;;;;4932728;28;20047;-63
2023/03/16 08:04:05;;;;;;;19.13;13.23;;;1.80;99.90;;;;;;4927972;29;20063;-63
2023/03/16 08:06:32;;;;;;;21.60;12.75;;;1.90;99.90;;;;;;4953851;28;20543;-63
2023/03/16 08:09:04;;;;;;;25.83;15.13;;;2.00;99.90;;;;;;4947710;28;20054;-63
2023/03/16 08:11:38;;;;;;;20.17;12.73;;;2.20;99.90;;;;;;4925722;29;20055;-63
2023/03/16 08:14:10;;;;;;;19.88;12.68;;;2.30;99.90;;;;;;4946612;28;20398;-63
2023/03/16 08:16:58;;;;;;;17.00;11.02;;;2.40;99.90;;;;;;4946492;28;20048;-63
2023/03/16 08:19:31;;;;;;;16.85;9.98;;;2.60;99.90;;;;;;4923964;29;20517;-63
2023/03/16 08:22:05;;;;;;;14.88;9.90;;;2.70;99.90;;;;;;4924148;29;20125;-63
2023/03/16 08:24:41;;;;;;;15.20;9.73;;;2.90;99.90;;;;;;4928885;29;20516;-63
2023/03/16 08:27:14;;;;;;;;;;;3.00;99.90;;;;;;4928907;29;20043;-63
2023/03/16 08:29:52;;;;;;;15.43;9.60;;;3.10;99.90;;;;;;4946904;28;19922;-63
2023/03/16 08:32:25;;;;;;;15.30;9.75;;;3.20;99.90;;;;;;4953749;28;20039;-63
2023/03/16 08:34:59;;;;;;;17.38;10.40;;;3.30;99.90;;;;;;4951508;28;20404;-63
2023/03/16 08:37:30;;;;;;;;;;;3.40;99.90;;;;;;4955782;28;20579;-63
2023/03/16 08:40:05;;;;;;;16.48;10.38;;;3.50;99.90;;;;;;4945618;29;19924;-63
2023/03/16 08:42:38;;;;;;;17.02;10.93;;;3.60;99.90;;;;;;4934785;29;20055;-63
2023/03/16 08:45:11;;;;;;;17.80;10.77;;;3.70;99.90;;;;;;4943408;28;20040;-63
2023/03/16 08:47:43;;;;;;;15.00;8.93;;;3.90;99.90;;;;;;4928290;29;20053;-63
2023/03/16 08:50:14;;;;;;;15.73;9.48;;;3.90;99.90;;;;;;4947055;28;20048;-63
2023/03/16 08:52:48;;;;;;;13.20;9.50;;;4.10;99.90;;;;;;4942896;29;20050;-63
2023/03/16 08:55:15;;;;;;;14.25;9.07;;;4.20;99.90;;;;;;4955944;28;20050;-63
2023/03/16 08:57:47;;;;;;;11.93;8.20;;;4.30;99.90;;;;;;4952209;28;20043;-63
2023/03/16 09:00:19;;;;;;;11.68;8.13;;;4.40;99.90;;;;;;4959083;28;20136;-63
2023/03/16 09:02:52;;;;;;;12.73;8.48;;;4.50;99.90;;;;;;4948807;29;20047;-63
2023/03/16 09:05:19;;;;;;;12.95;7.68;;;4.60;99.90;;;;;;4950502;28;20045;-63
2023/03/16 09:07:52;;;;;;;12.18;8.32;;;4.70;99.90;;;;;;4935317;29;20032;-63
2023/03/16 09:10:26;;;;;;;13.40;8.65;;;4.90;99.90;;;;;;4949238;28;20039;-63
2023/03/16 09:12:57;;;;;;;13.73;7.65;;;5.00;99.90;;;;;;4939227;28;20039;-63
2023/03/16 09:15:30;;;;;;;13.10;8.50;;;5.00;99.90;;;;;;4948060;28;20058;-63
2023/03/16 09:18:04;;;;;;;8.85;6.90;;;5.10;99.90;;;;;;4944098;29;20054;-63
2023/03/16 09:20:36;;;;;;;12.40;7.78;;;5.20;99.90;;;;;;4948209;28;20039;-63
2023/03/16 09:23:08;;;;;;;10.50;7.57;;;5.30;99.90;;;;;;4955003;28;20102;-63
2023/03/16 09:25:40;;;;;;;12.70;6.65;;;5.40;99.90;;;;;;4946582;29;20039;-63
2023/03/16 09:28:07;;;;;;;10.40;7.07;;;5.50;99.90;;;;;;4941637;28;20404;-63
2023/03/16 09:30:39;;;;;;;10.60;8.07;;;5.60;99.90;;;;;;4945959;28;20513;-64
2023/03/16 09:33:11;;;;;;;15.68;8.10;;;5.70;99.90;;;;;;4946241;28;20046;-63
2023/03/16 09:35:44;;;;;;;9.52;7.32;;;5.80;99.90;;;;;;4925721;28;20406;-64
2023/03/16 09:38:11;;;;;;;10.23;7.43;;;5.90;99.90;;;;;;4949951;28;20043;-63
2023/03/16 09:40:46;;;;;;;11.93;6.70;;;6.10;99.90;;;;;;4931798;29;20040;-63
2023/03/16 09:43:48;;;;;;;13.82;7.03;;;6.20;99.90;;;;;;4942682;29;20147;-63
2023/03/16 09:46:31;;;;;;;11.65;6.72;;;6.20;99.90;;;;;;4943324;29;20098;-63
2023/03/16 09:49:03;;;;;;;8.60;5.82;;;6.30;99.90;;;;;;4947681;29;20043;-63
2023/03/16 09:51:51;;;;;;;8.13;6.25;;;6.50;99.90;;;;;;4949652;29;20047;-63
2023/03/16 09:54:46;;;;;;;6.60;5.18;;;6.60;99.90;;;;;;4944455;29;20054;-63
2023/03/16 10:06:30;;;;;;;7.15;4.75;;;7.00;99.90;;;;;;4939655;28;20038;-63
2023/03/16 10:09:27;;;;;;;6.40;4.82;;;7.00;99.90;;;;;;4956197;28;20050;-63
2023/03/16 10:11:56;;;;;;;6.63;4.65;;;7.10;99.90;;;;;;4946657;28;20051;-63
2023/03/16 10:14:44;;;;;;;6.57;3.70;;;7.10;99.90;;;;;;4941663;29;20533;-63
2023/03/16 10:17:17;;;;;;;6.60;4.13;;;7.20;99.90;;;;;;4943789;28;20532;-64
2023/03/16 10:20:07;;;;;;;6.28;4.32;;;7.30;99.90;;;;;;4943513;28;20051;-63
2023/03/16 10:22:43;;;;;;;5.93;3.42;;;7.30;99.90;;;;;;4945798;28;20515;-63
2023/03/16 10:25:30;;;;;;;4.50;3.17;;;7.40;99.90;;;;;;4945047;28;20043;-63
2023/03/16 10:28:03;;;;;;;5.07;3.45;;;7.50;99.90;;;;;;4945576;28;20050;-63
2023/03/16 10:30:37;;;;;;;6.25;3.72;;;7.60;99.90;;;;;;4951017;28;20053;-63
2023/03/16 10:33:25;;;;;;;5.20;3.88;;;7.70;99.90;;;;;;4935556;29;20117;-63
2023/03/16 10:35:57;;;;;;;6.13;4.60;;;7.70;99.90;;;;;;4948471;28;20416;-63
2023/03/16 10:38:39;;;;;;;3.97;2.85;;;7.80;99.90;;;;;;4940086;28;20048;-64
2023/03/16 10:41:17;;;;;;;4.07;3.30;;;8.00;99.90;;;;;;4945251;28;20162;-63
2023/03/16 10:43:46;;;;;;;5.97;3.63;;;8.10;99.90;;;;;;4939931;28;20043;-63
2023/03/16 10:46:18;;;;;;;4.30;3.40;;;8.20;99.90;;;;;;4960701;28;20127;-64
2023/03/16 10:49:00;;;;;;;5.82;4.20;;;8.30;99.90;;;;;;4969077;28;20070;-63
2023/03/16 10:51:36;;;;;;;6.18;3.80;;;8.40;99.90;;;;;;4946654;28;20435;-63
2023/03/16 10:54:36;;;;;;;7.88;4.38;;;8.50;99.90;;;;;;4947425;28;20047;-63
2023/03/16 10:57:32;;;;;;;6.60;4.28;;;8.60;99.90;;;;;;4945988;28;20094;-63
2023/03/16 11:00:08;;;;;;;4.65;2.90;;;8.70;99.90;;;;;;4948612;28;20097;-63
2023/03/16 11:02:41;;;;;;;3.47;2.70;;;8.70;99.90;;;;;;4941382;28;20043;-63
2023/03/16 11:05:32;;;;;;;8.10;3.40;;;8.80;99.90;;;;;;4947509;28;20512;-63
2023/03/16 11:08:19;;;;;;;4.53;3.38;;;8.90;99.90;;;;;;4942905;28;20471;-64
2023/03/16 11:10:56;;;;;;;3.40;2.70;;;9.10;99.90;;;;;;4942952;28;20046;-63
2023/03/16 11:13:36;;;;;;;3.42;2.30;;;9.10;99.90;;;;;;4950213;28;20043;-64
2023/03/16 11:16:24;;;;;;;4.55;2.83;;;9.00;99.90;;;;;;4948319;28;20053;-64
2023/03/16 11:18:56;;;;;;;6.18;3.17;;;9.10;99.90;;;;;;4946448;28;20043;-63
2023/03/16 11:21:43;;;;;;;3.00;2.38;;;9.30;99.90;;;;;;4946081;28;20044;-63
2023/03/16 11:24:26;;;;;;;4.13;2.88;;;9.30;99.90;;;;;;4944519;28;20142;-63
2023/03/16 11:27:03;;;;;;;4.40;2.95;;;9.40;99.90;;;;;;4943175;28;20065;-63
2023/03/16 11:29:54;;;;;;;6.38;4.07;;;9.50;99.90;;;;;;4947096;28;20500;-64
2023/03/16 11:32:26;;;;;;;3.38;2.72;;;9.60;99.90;;;;;;4942440;28;20052;-64
2023/03/16 11:34:59;;;;;;;3.53;2.88;;;9.70;99.90;;;;;;4949480;28;20043;-63
2023/03/16 11:38:04;;;;;;;7.88;3.88;;;9.70;99.90;;;;;;4930070;29;20051;-63
2023/03/16 11:41:09;;;;;;;6.75;3.30;;;9.90;99.90;;;;;;4947212;28;20411;-63
2023/03/16 11:43:52;;;;;;;3.67;2.80;;;10.00;99.90;;;;;;4950334;28;20044;-63
2023/03/16 11:46:45;;;;;;;2.42;1.98;;;10.20;99.90;;;;;;4946072;28;20051;-63
2023/03/16 11:49:30;;;;;;;3.30;1.90;;;10.30;99.90;;;;;;4950594;28;20043;-64
2023/03/16 11:52:34;;;;;;;3.10;1.45;;;10.40;99.90;;;;;;4954238;28;20054;-63
2023/03/16 11:55:23;;;;;;;2.72;1.73;;;10.40;99.90;;;;;;4948733;28;20050;-63
2023/03/16 11:58:46;;;;;;;3.63;1.90;;;10.40;99.90;;;;;;4955265;28;20050;-64
2023/03/16 12:01:53;;;;;;;3.85;2.30;;;10.40;99.90;;;;;;4913393;29;20079;-63
2023/03/16 12:04:26;;;;;;;2.55;2.05;;;10.50;99.90;;;;;;4951680;28;20051;-63
2023/03/16 12:07:20;;;;;;;2.08;1.65;;;10.60;99.90;;;;;;4954237;28;20063;-63
2023/03/16 12:10:02;;;;;;;2.67;1.85;;;10.50;99.90;;;;;;4948926;28;20047;-63
2023/03/16 12:12:52;;;;;;;5.45;1.85;;;10.50;99.90;;;;;;4945456;28;20147;-63
2023/03/16 12:15:37;;;;;;;3.95;2.42;;;10.60;99.90;;;;;;4943760;28;20051;-63
2023/03/16 12:18:14;;;;;;;3.70;1.90;;;10.60;99.90;;;;;;4939622;28;20051;-63
2023/03/16 12:21:04;;;;;;;3.78;2.40;;;10.60;99.90;;;;;;4954033;28;20047;-63
2023/03/16 12:23:54;;;;;;;2.75;2.22;;;10.60;99.90;;;;;;4935270;28;20548;-63
2023/03/16 12:26:31;;;;;;;3.80;3.03;;;10.60;99.90;;;;;;4932251;29;20071;-64
2023/03/16 12:29:22;;;;;;;4.28;2.88;;;10.50;99.90;;;;;;4945636;28;20043;-63
2023/03/16 12:32:02;;;;;;;4.30;2.38;;;10.50;99.90;;;;;;4944369;28;20050;-63
2023/03/16 12:35:02;;;;;;;4.85;2.80;;;10.60;99.90;;;;;;4928753;29;20475;-64
2023/03/16 12:37:51;;;;;;;4.35;2.83;;;10.60;99.90;;;;;;4921452;29;20629;-63
2023/03/16 12:40:47;;;;;;;3.63;2.60;;;10.70;99.90;;;;;;4943204;28;20055;-63
2023/03/16 12:43:45;;;;;;;4.20;2.85;;;10.50;99.90;;;;;;4949632;28;20047;-63
2023/03/16 12:46:44;;;;;;;5.68;3.03;;;10.40;99.90;;;;;;4950005;28;20519;-63
2023/03/16 12:49:16;;;;;;;4.53;2.80;;;10.60;99.90;;;;;;4950043;28;20045;-64
2023/03/16 12:51:43;;;;;;;3.60;2.70;;;10.60;99.90;;;;;;4930754;28;20051;-63
2023/03/16 12:54:25;;;;;;;4.18;2.58;;;10.70;99.90;;;;;;4950718;28;20051;-63
2023/03/16 12:57:03;;;;;;;3.05;2.45;;;10.70;99.90;;;;;;4953909;28;20043;-64
2023/03/16 12:59:39;;;;;;;4.13;2.53;;;10.70;99.90;;;;;;4934119;29;20039;-62
2023/03/16 13:02:18;;;;;;;5.13;3.10;;;10.70;99.90;;;;;;4945093;28;20050;-63
2023/03/16 13:04:57;;;;;;;6.68;4.10;;;10.90;99.90;;;;;;4950068;28;20040;-63
2023/03/16 13:07:29;;;;;;;4.70;3.30;;;10.90;99.90;;;;;;4952052;28;20895;-63
2023/03/16 13:10:09;;;;;;;3.13;2.13;;;11.00;99.90;;;;;;4948372;28;20035;-63
2023/03/16 13:12:42;;;;;;;3.53;2.70;;;11.10;99.90;;;;;;4953302;28;20047;-63
2023/03/16 13:15:21;;;;;;;4.38;2.90;;;11.20;99.90;;;;;;4950107;28;20051;-63
2023/03/16 13:18:05;;;;;;;3.63;2.30;;;11.20;99.90;;;;;;4930776;28;20106;-63
2023/03/16 13:20:56;;;;;;;12.07;6.43;;;11.20;99.90;;;;;;4955286;28;20508;-63
2023/03/16 13:23:45;;;;;;;5.13;3.60;;;11.20;99.90;;;;;;4948941;28;20047;-64
2023/03/16 13:26:39;;;;;;;3.70;2.67;;;11.30;99.90;;;;;;4957532;28;20046;-64
2023/03/16 13:29:31;;;;;;;4.47;3.15;;;11.40;99.90;;;;;;4959143;28;20047;-64
2023/03/16 13:32:14;;;;;;;4.68;2.78;;;11.50;99.90;;;;;;4952735;28;20476;-63
2023/03/16 13:34:49;;;;;;;10.07;3.58;;;11.50;99.20;;;;;;4940086;28;20043;-64
2023/03/16 13:37:31;;;;;;;4.50;2.90;;;11.50;99.90;;;;;;4959164;28;20050;-64
2023/03/16 13:40:03;;;;;;;6.25;3.72;;;11.50;99.90;;;;;;4958489;28;20038;-64
2023/03/16 13:42:36;;;;;;;3.83;2.72;;;11.50;99.90;;;;;;4952085;28;20665;-64
2023/03/16 13:45:14;;;;;;;6.13;3.67;;;11.50;99.90;;;;;;4951285;28;20085;-64
2023/03/16 13:47:47;;;;;;;6.75;3.90;;;11.50;99.90;;;;;;4957367;28;20038;-64